Time;durP1;ratioP1;P1;durP2;ratioP2;P2;SDS_P1;SDS_P2;PMS_P1;PMS_P2;Temp;Humidity;BMP_temperature;BMP_pressure;BME280_temperature;BME280_humidity;BME280_pressure;Samples;Min_cycle;Max_cycle;Signal;HPM_P1;HPM_P2
2024/01/28 00:00:53;;;;;;;20.97;12.57;;;;;;;;;;4392382;32;316132;-78
2024/01/28 00:03:22;;;;;;;33.20;15.57;;;;;;;;;;4404950;32;316805;-76
2024/01/28 00:05:51;;;;;;;33.07;17.50;;;;;;;;;;4400498;32;317778;-76
2024/01/28 00:08:25;;;;;;;23.37;13.73;;;;;;;;;;4408839;32;317886;-76
2024/01/28 00:10:56;;;;;;;9.67;6.67;;;;;;;;;;4391441;32;318233;-77
2024/01/28 00:13:24;;;;;;;15.27;7.23;;;;;;;;;;4408360;32;316195;-77
2024/01/28 00:15:53;;;;;;;14.53;8.83;;;;;;;;;;4399402;32;317833;-78
2024/01/28 00:18:22;;;;;;;22.00;11.43;;;;;;;;;;4409236;32;317503;-77
2024/01/28 00:20:53;;;;;;;21.03;10.20;;;;;;;;;;4394056;32;318754;-77
2024/01/28 00:23:20;;;;;;;13.63;7.30;;;;;;;;;;4408610;32;318519;-77
2024/01/28 00:25:47;;;;;;;10.23;4.93;;;;;;;;;;4386159;32;317119;-77
2024/01/28 00:28:14;;;;;;;17.37;6.93;;;;;;;;;;4408902;32;317118;-77
2024/01/28 00:30:42;;;;;;;11.87;6.67;;;;;;;;;;4399725;32;316436;-77
2024/01/28 00:33:10;;;;;;;25.80;11.07;;;;;;;;;;4402745;32;317436;-77
2024/01/28 00:35:37;;;;;;;16.10;6.70;;;;;;;;;;4399257;32;318209;-77
2024/01/28 00:38:05;;;;;;;7.47;4.40;;;;;;;;;;4410087;32;317121;-78
2024/01/28 00:40:34;;;;;;;13.63;5.50;;;;;;;;;;4408743;32;316022;-77
2024/01/28 00:43:03;;;;;;;8.33;4.50;;;;;;;;;;4387293;32;414848;-77
2024/01/28 00:45:30;;;;;;;9.40;5.03;;;;;;;;;;4408587;32;316205;-78
2024/01/28 00:47:57;;;;;;;13.07;5.83;;;;;;;;;;4397557;32;316139;-78
2024/01/28 00:50:25;;;;;;;9.80;3.70;;;;;;;;;;4407548;32;317419;-78
2024/01/28 00:52:53;;;;;;;8.33;4.00;;;;;;;;;;4392752;32;316357;-79
2024/01/28 00:55:24;;;;;;;9.40;4.47;;;;;;;;;;4407757;32;315973;-78
2024/01/28 00:57:50;;;;;;;6.67;3.27;;;;;;;;;;4399308;32;320447;-77
2024/01/28 01:00:18;;;;;;;7.70;4.13;;;;;;;;;;4406923;32;316484;-78
2024/01/28 01:02:46;;;;;;;9.87;5.10;;;;;;;;;;4387856;32;326011;-77
2024/01/28 01:05:14;;;;;;;4.70;2.93;;;;;;;;;;4406716;32;315629;-78
2024/01/28 01:07:41;;;;;;;5.73;3.27;;;;;;;;;;4399063;32;315991;-78
2024/01/28 01:10:09;;;;;;;7.57;3.20;;;;;;;;;;4407135;32;322454;-78
2024/01/28 01:12:40;;;;;;;7.27;3.83;;;;;;;;;;4408361;32;315579;-77
2024/01/28 01:15:08;;;;;;;10.43;2.63;;;;;;;;;;4389826;32;415381;-79
2024/01/28 01:17:36;;;;;;;7.00;2.93;;;;;;;;;;4405434;32;316598;-78
2024/01/28 01:20:03;;;;;;;12.47;2.80;;;;;;;;;;4379866;32;417228;-78
2024/01/28 01:22:30;;;;;;;4.50;2.23;;;;;;;;;;4392720;32;316525;-77
2024/01/28 01:24:58;;;;;;;6.87;3.07;;;;;;;;;;4374240;32;319219;-78
2024/01/28 01:27:26;;;;;;;6.57;3.10;;;;;;;;;;4393770;32;316243;-78
2024/01/28 01:29:54;;;;;;;8.83;3.60;;;;;;;;;;4381678;32;356735;-77
2024/01/28 01:32:22;;;;;;;7.83;4.30;;;;;;;;;;4392923;32;315458;-77
2024/01/28 01:34:49;;;;;;;9.43;4.23;;;;;;;;;;4378391;32;328063;-77
2024/01/28 01:37:18;;;;;;;5.23;3.07;;;;;;;;;;4392831;32;316231;-77
2024/01/28 01:39:45;;;;;;;11.20;4.57;;;;;;;;;;4382601;32;316486;-77
2024/01/28 01:42:15;;;;;;;7.43;4.20;;;;;;;;;;4395316;32;316403;-77
2024/01/28 01:44:42;;;;;;;10.47;4.00;;;;;;;;;;4398119;32;316222;-77
2024/01/28 01:47:11;;;;;;;50.70;11.70;;;;;;;;;;4401594;32;315659;-77
2024/01/28 01:49:39;;;;;;;85.90;17.70;;;;;;;;;;4396788;32;317564;-77
2024/01/28 01:52:07;;;;;;;30.83;9.53;;;;;;;;;;4407791;32;329981;-77
2024/01/28 01:54:35;;;;;;;24.30;7.60;;;;;;;;;;4408068;32;317115;-77
2024/01/28 01:57:02;;;;;;;14.97;5.77;;;;;;;;;;4386361;32;418184;-77
2024/01/28 01:59:30;;;;;;;9.53;4.17;;;;;;;;;;4407356;32;315467;-77
2024/01/28 02:02:02;;;;;;;9.30;3.23;;;;;;;;;;4393488;32;315973;-77
2024/01/28 02:04:30;;;;;;;15.27;3.70;;;;;;;;;;4403212;32;315600;-77
2024/01/28 02:06:59;;;;;;;10.70;3.50;;;;;;;;;;4390898;32;317401;-77
2024/01/28 02:09:25;;;;;;;10.40;3.80;;;;;;;;;;4407930;32;316701;-77
2024/01/28 02:11:56;;;;;;;7.37;3.27;;;;;;;;;;4399455;32;317375;-78
2024/01/28 02:14:28;;;;;;;8.23;3.80;;;;;;;;;;4407186;32;316289;-77
2024/01/28 02:16:54;;;;;;;8.00;3.67;;;;;;;;;;4388989;32;316250;-77
2024/01/28 02:19:21;;;;;;;5.17;3.20;;;;;;;;;;4398829;32;316269;-77
2024/01/28 02:21:49;;;;;;;18.17;8.90;;;;;;;;;;4331762;32;316295;-77
2024/01/28 02:24:26;;;;;;;9.53;4.10;;;;;;;;;;4345046;32;317323;-77
2024/01/28 02:26:53;;;;;;;9.40;3.43;;;;;;;;;;4327515;32;349774;-77
2024/01/28 02:29:19;;;;;;;8.87;4.33;;;;;;;;;;4345519;32;316066;-77
2024/01/28 02:31:46;;;;;;;18.00;8.13;;;;;;;;;;4336325;32;315829;-79
2024/01/28 02:34:13;;;;;;;10.73;4.60;;;;;;;;;;4345429;32;317041;-77
2024/01/28 02:36:41;;;;;;;32.03;16.60;;;;;;;;;;4334517;32;344220;-78
2024/01/28 02:39:09;;;;;;;38.50;17.70;;;;;;;;;;4335185;32;317342;-78
2024/01/28 02:41:37;;;;;;;30.50;14.10;;;;;;;;;;4343671;32;318290;-77
2024/01/28 02:44:04;;;;;;;13.07;7.50;;;;;;;;;;4346993;32;418930;-77
2024/01/28 02:46:33;;;;;;;17.03;8.33;;;;;;;;;;4359036;32;324493;-78
2024/01/28 02:49:02;;;;;;;7.13;4.37;;;;;;;;;;4342113;32;317395;-77
2024/01/28 02:51:29;;;;;;;10.33;3.77;;;;;;;;;;4360285;32;315706;-77
2024/01/28 02:53:56;;;;;;;9.50;4.97;;;;;;;;;;4350210;32;317838;-77
2024/01/28 02:56:24;;;;;;;9.70;3.60;;;;;;;;;;4356938;32;315874;-78
2024/01/28 02:58:55;;;;;;;6.83;3.53;;;;;;;;;;4342800;32;315347;-78
2024/01/28 03:01:21;;;;;;;8.37;2.83;;;;;;;;;;4359810;32;315490;-78
2024/01/28 03:03:48;;;;;;;6.20;3.93;;;;;;;;;;4335943;32;316123;-77
2024/01/28 03:06:16;;;;;;;9.37;4.43;;;;;;;;;;4341610;32;314376;-77
2024/01/28 03:08:44;;;;;;;10.43;4.50;;;;;;;;;;4345584;32;315958;-77
2024/01/28 03:11:11;;;;;;;8.53;3.53;;;;;;;;;;4357344;32;316647;-77
2024/01/28 03:13:38;;;;;;;10.20;3.73;;;;;;;;;;4349546;32;317023;-77
2024/01/28 03:16:06;;;;;;;7.80;3.60;;;;;;;;;;4360314;32;317049;-77
2024/01/28 03:18:34;;;;;;;6.20;3.63;;;;;;;;;;4360867;32;315749;-77
2024/01/28 03:21:00;;;;;;;9.17;4.30;;;;;;;;;;4343105;32;315435;-77
2024/01/28 03:23:29;;;;;;;7.53;3.60;;;;;;;;;;4357227;32;315061;-77
2024/01/28 03:25:56;;;;;;;7.22;3.70;;;;;;;;;;4351316;32;325310;-77
2024/01/28 03:28:24;;;;;;;6.50;3.80;;;;;;;;;;4363785;32;315655;-77
2024/01/28 03:30:53;;;;;;;8.73;3.93;;;;;;;;;;4342301;32;316073;-76
2024/01/28 03:33:21;;;;;;;3.27;2.50;;;;;;;;;;4346787;32;316008;-76
2024/01/28 03:35:48;;;;;;;6.07;3.23;;;;;;;;;;4338190;32;316293;-77
2024/01/28 03:38:17;;;;;;;4.67;3.43;;;;;;;;;;4346697;32;353491;-76
2024/01/28 03:40:47;;;;;;;4.73;3.50;;;;;;;;;;4338458;32;315921;-76
2024/01/28 03:43:14;;;;;;;6.10;4.07;;;;;;;;;;4355574;32;315355;-76
2024/01/28 03:45:41;;;;;;;8.77;3.70;;;;;;;;;;4351121;32;395250;-79
2024/01/28 03:48:08;;;;;;;5.63;3.80;;;;;;;;;;4361981;32;316082;-77
2024/01/28 03:50:36;;;;;;;6.10;3.70;;;;;;;;;;4363106;32;316027;-77
2024/01/28 03:53:03;;;;;;;8.20;3.50;;;;;;;;;;4341908;32;415101;-77
2024/01/28 03:55:30;;;;;;;6.87;2.93;;;;;;;;;;4360628;32;315474;-77
2024/01/28 03:57:58;;;;;;;5.40;3.43;;;;;;;;;;4339665;32;316154;-77
2024/01/28 04:00:28;;;;;;;11.27;4.10;;;;;;;;;;4362195;32;316446;-77
2024/01/28 04:02:56;;;;;;;5.20;3.57;;;;;;;;;;4344977;32;317208;-77
2024/01/28 04:05:23;;;;;;;6.93;3.93;;;;;;;;;;4361759;32;316255;-77
2024/01/28 04:07:51;;;;;;;7.03;4.30;;;;;;;;;;4352136;32;315981;-77
2024/01/28 04:10:17;;;;;;;6.33;4.17;;;;;;;;;;4362659;32;315957;-77
2024/01/28 04:12:44;;;;;;;6.33;4.03;;;;;;;;;;4352475;32;334665;-77
2024/01/28 04:15:11;;;;;;;10.23;4.60;;;;;;;;;;4358456;32;315808;-77
2024/01/28 04:17:37;;;;;;;11.27;3.90;;;;;;;;;;4353085;32;316973;-77
2024/01/28 04:20:05;;;;;;;11.10;5.20;;;;;;;;;;4361107;32;315505;-77
2024/01/28 04:22:31;;;;;;;9.30;4.87;;;;;;;;;;4363158;32;316874;-77
2024/01/28 04:24:59;;;;;;;7.73;4.40;;;;;;;;;;4346049;32;315777;-77
2024/01/28 04:27:26;;;;;;;9.13;4.77;;;;;;;;;;4354795;32;315535;-78
2024/01/28 04:29:53;;;;;;;8.20;4.40;;;;;;;;;;4336913;32;355472;-77
2024/01/28 04:32:21;;;;;;;13.13;7.03;;;;;;;;;;4346727;32;316027;-76
2024/01/28 04:34:48;;;;;;;15.77;8.30;;;;;;;;;;4329347;32;317290;-77
2024/01/28 04:37:14;;;;;;;16.77;9.83;;;;;;;;;;4347718;32;317135;-77
2024/01/28 04:39:41;;;;;;;18.17;10.83;;;;;;;;;;4386726;32;317201;-77
2024/01/28 04:42:10;;;;;;;25.10;12.40;;;;;;;;;;4349479;32;352604;-77
2024/01/28 04:44:37;;;;;;;11.80;7.03;;;;;;;;;;4350377;32;318346;-77
2024/01/28 04:47:04;;;;;;;12.20;6.73;;;;;;;;;;4353200;32;316293;-78
2024/01/28 04:49:33;;;;;;;19.33;9.80;;;;;;;;;;4360710;32;325864;-77
2024/01/28 04:52:03;;;;;;;23.23;10.53;;;;;;;;;;4348945;32;317291;-77
2024/01/28 04:54:30;;;;;;;20.20;9.63;;;;;;;;;;4360986;32;317754;-77
2024/01/28 04:56:58;;;;;;;21.63;9.13;;;;;;;;;;4343418;32;350513;-77
2024/01/28 04:59:26;;;;;;;21.40;11.77;;;;;;;;;;4360930;32;319413;-77
2024/01/28 05:01:53;;;;;;;22.23;12.30;;;;;;;;;;4349599;32;342842;-77
2024/01/28 05:04:21;;;;;;;31.23;14.30;;;;;;;;;;4360880;32;357659;-77
2024/01/28 05:06:51;;;;;;;17.07;10.23;;;;;;;;;;4344836;32;317552;-76
2024/01/28 05:09:19;;;;;;;22.50;10.77;;;;;;;;;;4354140;32;318441;-76
2024/01/28 05:11:47;;;;;;;25.17;12.67;;;;;;;;;;4350853;32;318184;-77
2024/01/28 05:14:15;;;;;;;25.07;13.23;;;;;;;;;;4362122;32;317624;-77
2024/01/28 05:16:47;;;;;;;12.53;7.43;;;;;;;;;;4352218;32;318089;-77
2024/01/28 05:19:14;;;;;;;24.07;13.67;;;;;;;;;;4358333;32;316673;-77
2024/01/28 05:21:41;;;;;;;26.87;12.77;;;;;;;;;;4348736;32;329931;-77
2024/01/28 05:24:09;;;;;;;34.30;16.10;;;;;;;;;;4352145;32;319139;-77
2024/01/28 05:26:37;;;;;;;41.90;18.87;;;;;;;;;;4346860;32;317869;-77
2024/01/28 05:29:05;;;;;;;35.17;17.00;;;;;;;;;;4370722;32;417392;-77
2024/01/28 05:31:32;;;;;;;34.70;17.20;;;;;;;;;;4347493;32;318305;-77
2024/01/28 05:34:02;;;;;;;23.27;13.80;;;;;;;;;;4338454;32;318100;-77
2024/01/28 05:36:30;;;;;;;33.03;17.83;;;;;;;;;;4347154;32;317378;-77
2024/01/28 05:39:00;;;;;;;28.83;15.97;;;;;;;;;;4331641;32;317978;-77
2024/01/28 05:41:27;;;;;;;27.30;14.03;;;;;;;;;;4345859;32;340912;-77
2024/01/28 05:43:55;;;;;;;26.23;14.23;;;;;;;;;;4328214;32;318231;-77
2024/01/28 05:46:23;;;;;;;28.83;15.70;;;;;;;;;;4357434;32;318278;-78
2024/01/28 05:48:53;;;;;;;23.20;12.77;;;;;;;;;;4345757;32;318203;-77
2024/01/28 05:51:22;;;;;;;30.30;15.97;;;;;;;;;;4359486;32;317662;-78
2024/01/28 05:53:49;;;;;;;21.57;11.23;;;;;;;;;;4350027;32;318291;-78
2024/01/28 05:56:17;;;;;;;18.87;11.37;;;;;;;;;;4361355;32;318192;-77
2024/01/28 05:58:46;;;;;;;23.00;12.10;;;;;;;;;;4335648;32;318143;-77
2024/01/28 06:01:13;;;;;;;25.10;12.53;;;;;;;;;;4354833;32;318235;-78
2024/01/28 06:03:41;;;;;;;33.23;19.03;;;;;;;;;;4335225;32;316651;-77
2024/01/28 06:06:09;;;;;;;30.20;19.40;;;;;;;;;;4346459;32;316527;-77
2024/01/28 06:08:37;;;;;;;35.23;18.13;;;;;;;;;;4345426;32;317673;-78
2024/01/28 06:11:04;;;;;;;41.00;16.40;;;;;;;;;;4326595;32;417571;-78
2024/01/28 06:13:31;;;;;;;31.30;16.13;;;;;;;;;;4346288;32;317610;-78
2024/01/28 06:16:00;;;;;;;31.33;17.03;;;;;;;;;;4335017;32;318270;-77
2024/01/28 06:18:27;;;;;;;26.40;14.67;;;;;;;;;;4346295;32;317852;-77
2024/01/28 06:20:55;;;;;;;23.00;13.50;;;;;;;;;;4343448;32;318326;-77
2024/01/28 06:23:21;;;;;;;24.47;13.43;;;;;;;;;;4359120;32;317954;-77
2024/01/28 06:25:50;;;;;;;30.83;15.43;;;;;;;;;;4344094;32;317386;-77
2024/01/28 06:28:18;;;;;;;34.00;15.10;;;;;;;;;;4356713;32;317649;-77
2024/01/28 06:30:47;;;;;;;28.73;14.43;;;;;;;;;;4349158;32;317426;-78
2024/01/28 06:33:13;;;;;;;43.60;20.17;;;;;;;;;;4358006;32;318671;-77
2024/01/28 06:35:40;;;;;;;46.70;22.50;;;;;;;;;;4348883;32;355485;-77
2024/01/28 06:38:07;;;;;;;48.40;24.00;;;;;;;;;;4360390;32;317646;-78
2024/01/28 06:40:34;;;;;;;34.40;20.57;;;;;;;;;;4355226;32;316495;-77
2024/01/28 06:43:02;;;;;;;28.93;17.20;;;;;;;;;;4333558;32;318240;-78
2024/01/28 06:45:29;;;;;;;45.30;24.30;;;;;;;;;;4346508;32;318145;-77
2024/01/28 06:47:55;;;;;;;46.83;22.73;;;;;;;;;;4335354;32;318340;-78
2024/01/28 06:50:22;;;;;;;48.10;23.17;;;;;;;;;;4355595;32;317786;-79
2024/01/28 06:52:49;;;;;;;21.13;12.30;;;;;;;;;;4341699;32;318333;-78
2024/01/28 06:55:16;;;;;;;27.50;14.70;;;;;;;;;;4345724;32;317797;-78
2024/01/28 06:57:43;;;;;;;25.97;14.73;;;;;;;;;;4345486;32;318093;-78
2024/01/28 07:00:13;;;;;;;21.20;12.40;;;;;;;;;;4361271;32;317780;-78
2024/01/28 07:02:40;;;;;;;26.90;14.03;;;;;;;;;;4349472;32;318058;-77
2024/01/28 07:05:12;;;;;;;30.17;15.70;;;;;;;;;;4351337;32;318469;-78
2024/01/28 07:07:39;;;;;;;34.80;18.97;;;;;;;;;;4352729;32;317519;-78
2024/01/28 07:10:08;;;;;;;35.93;18.47;;;;;;;;;;4363027;32;318128;-78
2024/01/28 07:12:38;;;;;;;33.50;18.20;;;;;;;;;;4362422;32;318165;-76
2024/01/28 07:15:07;;;;;;;34.23;16.90;;;;;;;;;;4339590;32;417725;-78
2024/01/28 07:17:35;;;;;;;19.43;9.67;;;;;;;;;;4345818;32;318351;-77
2024/01/28 07:20:02;;;;;;;20.30;9.50;;;;;;;;;;4333513;32;417977;-78
2024/01/28 07:22:29;;;;;;;11.00;5.37;;;;;;;;;;4348086;32;316648;-77
2024/01/28 07:24:56;;;;;;;17.07;8.90;;;;;;;;;;4340774;32;317089;-77
2024/01/28 07:27:23;;;;;;;26.03;10.50;;;;;;;;;;4348528;32;317416;-77
2024/01/28 07:29:50;;;;;;;16.87;9.50;;;;;;;;;;4338353;32;317713;-77
2024/01/28 07:32:16;;;;;;;11.97;6.93;;;;;;;;;;4357577;32;317137;-78
2024/01/28 07:34:46;;;;;;;14.67;9.13;;;;;;;;;;4351578;32;339609;-77
2024/01/28 07:37:14;;;;;;;14.80;9.10;;;;;;;;;;4359455;32;316665;-78
2024/01/28 07:39:40;;;;;;;26.60;13.67;;;;;;;;;;4351776;32;317011;-78
2024/01/28 07:42:07;;;;;;;15.97;8.07;;;;;;;;;;4351320;32;324824;-77
2024/01/28 07:44:34;;;;;;;11.40;6.13;;;;;;;;;;4349429;32;317173;-79
2024/01/28 07:47:02;;;;;;;10.03;5.93;;;;;;;;;;4339312;32;317315;-77
2024/01/28 07:49:29;;;;;;;14.83;5.47;;;;;;;;;;4354912;32;317221;-77
2024/01/28 07:51:57;;;;;;;18.17;10.40;;;;;;;;;;4344270;32;317011;-76
2024/01/28 07:54:24;;;;;;;9.43;5.30;;;;;;;;;;4347409;32;318362;-77
2024/01/28 07:56:52;;;;;;;5.27;3.37;;;;;;;;;;4344675;32;316325;-77
2024/01/28 07:59:19;;;;;;;4.20;2.57;;;;;;;;;;4362966;32;316202;-77
2024/01/28 08:01:46;;;;;;;6.63;2.97;;;;;;;;;;4352585;32;316199;-77
2024/01/28 08:04:14;;;;;;;3.60;2.40;;;;;;;;;;4362982;32;316442;-77
2024/01/28 08:06:41;;;;;;;11.30;2.43;;;;;;;;;;4353610;32;316264;-78
2024/01/28 08:09:09;;;;;;;5.57;3.53;;;;;;;;;;4355430;32;317426;-77
2024/01/28 08:11:37;;;;;;;7.03;4.90;;;;;;;;;;4359412;32;316254;-77
2024/01/28 08:14:03;;;;;;;5.93;3.90;;;;;;;;;;4359435;32;315582;-78
2024/01/28 08:16:31;;;;;;;4.97;3.73;;;;;;;;;;4361392;32;315928;-77
2024/01/28 08:18:58;;;;;;;18.20;5.70;;;;;;;;;;4344063;32;315986;-78
2024/01/28 08:21:24;;;;;;;13.93;3.70;;;;;;;;;;4360073;32;317112;-77
2024/01/28 08:23:51;;;;;;;7.43;2.90;;;;;;;;;;4351502;32;317257;-77
2024/01/28 08:26:19;;;;;;;6.50;4.50;;;;;;;;;;4361741;32;315921;-77
2024/01/28 08:28:46;;;;;;;6.93;3.93;;;;;;;;;;4349927;32;316285;-77
2024/01/28 08:31:13;;;;;;;7.33;4.47;;;;;;;;;;4362253;32;315717;-78
2024/01/28 08:33:40;;;;;;;5.57;4.37;;;;;;;;;;4352536;32;316162;-78
2024/01/28 08:36:07;;;;;;;5.47;3.17;;;;;;;;;;4361184;32;315473;-77
2024/01/28 08:38:34;;;;;;;4.53;2.63;;;;;;;;;;4360336;32;316328;-77
2024/01/28 08:41:01;;;;;;;8.13;5.23;;;;;;;;;;4345338;32;316229;-78
2024/01/28 08:43:29;;;;;;;9.30;6.23;;;;;;;;;;4361978;32;316197;-78
2024/01/28 08:45:56;;;;;;;9.77;5.03;;;;;;;;;;4352445;32;331439;-78
2024/01/28 08:48:23;;;;;;;7.33;4.80;;;;;;;;;;4362431;32;316952;-77
2024/01/28 08:50:49;;;;;;;10.30;5.60;;;;;;;;;;4344987;32;316236;-77
2024/01/28 08:53:16;;;;;;;7.37;3.73;;;;;;;;;;4361281;32;316908;-77
2024/01/28 08:55:43;;;;;;;8.07;4.07;;;;;;;;;;4338375;32;316313;-77
2024/01/28 08:58:10;;;;;;;6.57;2.57;;;;;;;;;;4348094;32;316336;-77
2024/01/28 09:00:40;;;;;;;11.50;5.20;;;;;;;;;;4338674;32;315985;-76
2024/01/28 09:03:06;;;;;;;5.93;3.67;;;;;;;;;;4340252;32;317330;-76
2024/01/28 09:05:33;;;;;;;5.73;3.37;;;;;;;;;;4349154;32;315460;-78
2024/01/28 09:08:00;;;;;;;13.17;5.40;;;;;;;;;;4343332;32;316167;-77
2024/01/28 09:10:27;;;;;;;5.53;3.90;;;;;;;;;;4362441;32;317316;-77
2024/01/28 09:12:53;;;;;;;7.40;4.37;;;;;;;;;;4345818;32;316176;-77
2024/01/28 09:15:20;;;;;;;5.77;2.80;;;;;;;;;;4363168;32;316020;-77
2024/01/28 09:17:48;;;;;;;9.50;4.73;;;;;;;;;;4351358;32;316438;-77
2024/01/28 09:20:15;;;;;;;7.37;3.80;;;;;;;;;;4348239;32;315879;-77
2024/01/28 09:22:41;;;;;;;8.43;3.90;;;;;;;;;;4345483;32;316701;-77
2024/01/28 09:25:09;;;;;;;10.97;5.27;;;;;;;;;;4355137;32;331424;-77
2024/01/28 09:27:35;;;;;;;14.07;6.97;;;;;;;;;;4361347;32;317202;-77
2024/01/28 09:30:02;;;;;;;9.77;5.57;;;;;;;;;;4334335;32;417759;-77
2024/01/28 09:32:29;;;;;;;5.00;3.90;;;;;;;;;;4347312;32;315736;-78
2024/01/28 09:34:58;;;;;;;18.53;8.10;;;;;;;;;;4330401;32;316109;-77
2024/01/28 09:37:24;;;;;;;13.57;7.37;;;;;;;;;;4350461;32;337600;-77
2024/01/28 09:39:51;;;;;;;6.03;3.67;;;;;;;;;;4338728;32;317220;-77
2024/01/28 09:42:22;;;;;;;9.53;3.63;;;;;;;;;;4353512;32;316136;-77
2024/01/28 09:44:50;;;;;;;6.30;2.90;;;;;;;;;;4348519;32;320199;-77
2024/01/28 09:47:18;;;;;;;5.47;3.53;;;;;;;;;;4361403;32;316350;-78
2024/01/28 09:49:47;;;;;;;8.70;4.73;;;;;;;;;;4351128;32;315653;-78
2024/01/28 09:52:16;;;;;;;8.17;5.43;;;;;;;;;;4362535;32;316255;-78
2024/01/28 09:54:44;;;;;;;8.67;5.30;;;;;;;;;;4352737;32;316035;-77
2024/01/28 09:57:12;;;;;;;12.77;7.23;;;;;;;;;;4360417;32;315813;-78
2024/01/28 09:59:39;;;;;;;17.47;9.10;;;;;;;;;;4352438;32;317666;-77
2024/01/28 10:02:06;;;;;;;15.37;9.00;;;;;;;;;;4362633;32;317260;-77
2024/01/28 10:04:34;;;;;;;13.07;8.07;;;;;;;;;;4361730;32;321268;-77
2024/01/28 10:07:02;;;;;;;6.67;3.53;;;;;;;;;;4343804;32;317272;-78
2024/01/28 10:09:30;;;;;;;11.10;6.90;;;;;;;;;;4358864;32;316313;-76
2024/01/28 10:11:58;;;;;;;9.57;5.93;;;;;;;;;;4345590;32;317456;-77
2024/01/28 10:14:25;;;;;;;18.13;7.77;;;;;;;;;;4344511;32;316095;-78
2024/01/28 10:16:52;;;;;;;12.93;7.67;;;;;;;;;;4343384;32;317223;-79
2024/01/28 10:19:19;;;;;;;5.73;3.80;;;;;;;;;;4360048;32;317397;-77
2024/01/28 10:21:46;;;;;;;11.07;5.23;;;;;;;;;;4349001;32;316242;-79
2024/01/28 10:24:15;;;;;;;12.77;8.60;;;;;;;;;;4361170;32;317242;-79
2024/01/28 10:26:44;;;;;;;38.00;12.47;;;;;;;;;;4349713;32;336131;-80
2024/01/28 10:29:13;;;;;;;10.13;5.87;;;;;;;;;;4355319;32;318343;-78
2024/01/28 10:31:39;;;;;;;8.97;6.27;;;;;;;;;;4349563;32;317163;-78
2024/01/28 10:34:08;;;;;;;7.27;5.50;;;;;;;;;;4359254;32;316259;-78
2024/01/28 10:36:36;;;;;;;9.90;5.23;;;;;;;;;;4359859;32;315697;-77
2024/01/28 10:39:04;;;;;;;5.13;2.93;;;;;;;;;;4340776;32;416578;-77
2024/01/28 10:41:33;;;;;;;4.13;2.30;;;;;;;;;;4361415;32;316326;-77
2024/01/28 10:44:05;;;;;;;6.23;3.10;;;;;;;;;;4342371;32;316047;-79
2024/01/28 10:46:38;;;;;;;4.90;3.27;;;;;;;;;;4348721;32;316191;-77
2024/01/28 10:49:06;;;;;;;6.27;3.93;;;;;;;;;;4320128;32;415500;-76
2024/01/28 10:51:35;;;;;;;6.43;3.47;;;;;;;;;;4343945;32;315954;-78
2024/01/28 10:54:04;;;;;;;4.20;2.57;;;;;;;;;;4330671;32;396141;-79
2024/01/28 10:56:31;;;;;;;17.40;8.80;;;;;;;;;;4343125;32;343006;-78
2024/01/28 10:58:59;;;;;;;10.63;5.97;;;;;;;;;;4327975;32;317347;-79
2024/01/28 11:01:28;;;;;;;4.70;3.20;;;;;;;;;;4356126;32;316868;-78
2024/01/28 11:03:57;;;;;;;8.93;4.47;;;;;;;;;;4357579;32;315706;-77
2024/01/28 11:06:27;;;;;;;6.80;3.83;;;;;;;;;;4367951;32;338745;-79
2024/01/28 11:08:55;;;;;;;7.53;3.13;;;;;;;;;;4351573;32;315510;-77
2024/01/28 11:11:22;;;;;;;4.87;3.53;;;;;;;;;;4370623;32;316071;-78
2024/01/28 11:13:49;;;;;;;7.00;4.60;;;;;;;;;;4362806;32;341685;-77
2024/01/28 11:16:15;;;;;;;10.00;4.73;;;;;;;;;;4373417;32;330245;-77
2024/01/28 11:18:55;;;;;;;7.80;4.67;;;;;;;;;;4363434;32;317091;-77
2024/01/28 11:21:22;;;;;;;6.63;4.23;;;;;;;;;;4374960;32;315884;-78
2024/01/28 11:23:50;;;;;;;6.03;3.53;;;;;;;;;;4358886;32;316021;-78
2024/01/28 11:26:18;;;;;;;6.57;3.60;;;;;;;;;;4361377;32;315276;-80
2024/01/28 11:28:51;;;;;;;5.30;3.53;;;;;;;;;;4351214;32;315648;-78
2024/01/28 11:31:23;;;;;;;6.90;4.20;;;;;;;;;;4362202;32;317131;-79
2024/01/28 11:33:52;;;;;;;8.97;5.03;;;;;;;;;;4349187;32;315444;-77
2024/01/28 11:36:26;;;;;;;8.50;4.80;;;;;;;;;;4360231;32;315499;-79
2024/01/28 11:39:01;;;;;;;12.47;5.87;;;;;;;;;;4344615;32;316415;-79
2024/01/28 11:41:31;;;;;;;16.77;8.77;;;;;;;;;;4357481;32;317262;-79
2024/01/28 11:43:59;;;;;;;7.20;3.30;;;;;;;;;;4349089;32;316742;-77
2024/01/28 11:46:27;;;;;;;6.67;4.40;;;;;;;;;;4360828;32;316522;-78
2024/01/28 11:48:55;;;;;;;12.30;7.03;;;;;;;;;;4344844;32;316159;-80
2024/01/28 11:51:22;;;;;;;11.67;3.33;;;;;;;;;;4361467;32;317178;-78
2024/01/28 11:53:49;;;;;;;6.93;3.80;;;;;;;;;;4351160;32;317223;-77
2024/01/28 11:56:16;;;;;;;3.50;2.50;;;;;;;;;;4361880;32;315926;-79
2024/01/28 11:58:42;;;;;;;12.27;5.07;;;;;;;;;;4351980;32;341237;-80
2024/01/28 12:01:10;;;;;;;13.23;7.90;;;;;;;;;;4357551;32;316801;-80
2024/01/28 12:03:37;;;;;;;19.67;9.93;;;;;;;;;;4345321;32;317380;-79
2024/01/28 12:06:06;;;;;;;5.97;3.93;;;;;;;;;;4361902;32;316669;-79
2024/01/28 12:08:33;;;;;;;10.20;5.47;;;;;;;;;;4358722;32;316415;-79
2024/01/28 12:11:02;;;;;;;5.83;4.00;;;;;;;;;;4343820;32;321657;-78
2024/01/28 12:13:29;;;;;;;16.60;8.67;;;;;;;;;;4360663;32;316270;-78
2024/01/28 12:15:57;;;;;;;9.63;5.43;;;;;;;;;;4350014;32;322309;-76
2024/01/28 12:18:24;;;;;;;5.83;3.70;;;;;;;;;;4359966;32;316205;-77
2024/01/28 12:20:51;;;;;;;5.40;3.10;;;;;;;;;;4342671;32;316367;-76
2024/01/28 12:23:20;;;;;;;3.87;3.00;;;;;;;;;;4357955;32;315481;-76
2024/01/28 12:25:47;;;;;;;4.87;3.07;;;;;;;;;;4348945;32;316304;-76
2024/01/28 12:28:14;;;;;;;4.17;2.80;;;;;;;;;;4361068;32;316075;-77
2024/01/28 12:30:41;;;;;;;4.47;2.40;;;;;;;;;;4350883;32;316057;-77
2024/01/28 12:33:08;;;;;;;9.83;4.80;;;;;;;;;;4352827;32;316099;-76
2024/01/28 12:35:34;;;;;;;8.97;5.67;;;;;;;;;;4360564;32;315601;-76
2024/01/28 12:38:01;;;;;;;6.80;4.53;;;;;;;;;;4351087;32;316096;-75
2024/01/28 12:40:29;;;;;;;6.87;3.90;;;;;;;;;;4358435;32;316106;-76
2024/01/28 12:42:56;;;;;;;11.77;6.80;;;;;;;;;;4342503;32;316160;-75
2024/01/28 12:45:23;;;;;;;8.43;5.57;;;;;;;;;;4358609;32;317321;-76
2024/01/28 12:47:49;;;;;;;5.50;3.90;;;;;;;;;;4349040;32;316332;-75
2024/01/28 12:50:16;;;;;;;5.23;3.77;;;;;;;;;;4360179;32;316118;-74
2024/01/28 12:52:43;;;;;;;8.60;5.53;;;;;;;;;;4339903;32;316082;-75
2024/01/28 12:55:10;;;;;;;10.83;5.63;;;;;;;;;;4340160;32;316270;-75
2024/01/28 12:57:40;;;;;;;3.97;3.40;;;;;;;;;;4335643;32;317052;-75
2024/01/28 13:00:08;;;;;;;10.67;7.97;;;;;;;;;;4347006;32;315356;-75
2024/01/28 13:02:35;;;;;;;7.30;5.30;;;;;;;;;;4360909;32;317403;-76
2024/01/28 13:05:02;;;;;;;9.20;5.90;;;;;;;;;;4341514;32;415060;-74
2024/01/28 13:07:29;;;;;;;8.40;4.63;;;;;;;;;;4360037;32;315401;-76
2024/01/28 13:09:57;;;;;;;8.03;4.27;;;;;;;;;;4342774;32;316242;-75
2024/01/28 13:12:24;;;;;;;9.20;5.67;;;;;;;;;;4359439;32;324175;-76
2024/01/28 13:14:52;;;;;;;6.63;3.70;;;;;;;;;;4343839;32;316354;-75
2024/01/28 13:17:22;;;;;;;24.43;14.87;;;;;;;;;;4356558;32;315525;-75
2024/01/28 13:19:53;;;;;;;5.63;3.33;;;;;;;;;;4348703;32;317905;-75
2024/01/28 13:22:20;;;;;;;7.23;4.43;;;;;;;;;;4357503;32;315317;-77
2024/01/28 13:24:51;;;;;;;7.00;3.73;;;;;;;;;;4339982;32;316497;-75
2024/01/28 13:27:18;;;;;;;4.53;3.60;;;;;;;;;;4356370;32;316065;-76
2024/01/28 13:29:45;;;;;;;8.53;5.90;;;;;;;;;;4346814;32;316124;-76
2024/01/28 13:32:13;;;;;;;9.20;3.90;;;;;;;;;;4357727;32;315375;-77
2024/01/28 13:34:40;;;;;;;11.13;7.67;;;;;;;;;;4348775;32;316018;-77
2024/01/28 13:37:07;;;;;;;12.97;6.77;;;;;;;;;;4349373;32;334466;-76
2024/01/28 13:39:34;;;;;;;9.90;5.73;;;;;;;;;;4342233;32;316449;-78
2024/01/28 13:42:01;;;;;;;20.13;9.33;;;;;;;;;;4333207;32;316092;-76
2024/01/28 13:44:27;;;;;;;20.27;12.77;;;;;;;;;;4344453;32;342128;-77
2024/01/28 13:46:57;;;;;;;28.60;15.13;;;;;;;;;;4319829;32;318230;-78
2024/01/28 13:49:25;;;;;;;39.83;21.63;;;;;;;;;;4345329;32;317987;-77
2024/01/28 13:51:53;;;;;;;16.60;9.63;;;;;;;;;;4342380;32;318179;-78
2024/01/28 13:54:19;;;;;;;23.33;10.27;;;;;;;;;;4358513;32;316982;-77
2024/01/28 13:56:47;;;;;;;18.37;13.30;;;;;;;;;;4341169;32;318070;-76
2024/01/28 13:59:14;;;;;;;27.03;16.17;;;;;;;;;;4344496;32;355577;-77
2024/01/28 14:01:41;;;;;;;32.60;20.47;;;;;;;;;;4343611;32;318492;-77
2024/01/28 14:04:08;;;;;;;29.40;19.23;;;;;;;;;;4344025;32;317492;-77
2024/01/28 14:06:36;;;;;;;37.10;24.50;;;;;;;;;;4344858;32;329579;-76
2024/01/28 14:09:03;;;;;;;29.07;19.17;;;;;;;;;;4336950;32;417135;-77
2024/01/28 14:11:30;;;;;;;27.57;15.00;;;;;;;;;;4359013;32;318017;-76
2024/01/28 14:13:56;;;;;;;20.20;10.87;;;;;;;;;;4349210;32;318341;-77
2024/01/28 14:16:23;;;;;;;26.53;14.60;;;;;;;;;;4359808;32;318115;-76
2024/01/28 14:18:50;;;;;;;24.60;14.13;;;;;;;;;;4342936;32;318580;-77
2024/01/28 14:21:17;;;;;;;17.10;11.07;;;;;;;;;;4358873;32;318176;-79
2024/01/28 14:23:45;;;;;;;15.70;11.00;;;;;;;;;;4348305;32;318377;-78